^^
Your Local Weather - Clay, NY Station Historical Data
Daily Summary for July 30, 2017 Units:  English    Metric   Both
« Previous Day
Next Day »
Daily Weekly Monthly Yearly Custom
  High: Low: Average:
Temperature: 81.1 °F 50.2 °F 66.3 °F
Dew Point: 63.8 °F 48.3 °F 55.3 °F
Humidity: 94% 36% 72%
Wind Speed: 4.0mph 0.0mph 0.4mph
Wind Gust: 4.0mph - -
Wind- - WSW
Pressure: 30.04 in 29.95 in -
Precipitation: 0.00 in    
Historical Graphs
 
 
Tabular Data for July 30, 2017
Time Temperature Dew Point Pressure Wind Wind Speed Wind Gust Humidity Rainfall Rate (Hourly) solar
00:02 55.5 °F 51.7 °F 29.95 in Calm     87% 0.00 in 0 W/m2
00:08 55.3 °F 51.5 °F 29.95 in Calm     87% 0.00 in 0 W/m2
00:14 55.2 °F 51.4 °F 29.95 in Calm     87% 0.00 in 0 W/m2
00:20 55.0 °F 51.5 °F 29.95 in Calm     88% 0.00 in 0 W/m2
00:26 54.8 °F 51.3 °F 29.95 in Calm     88% 0.00 in 0 W/m2
00:32 54.7 °F 51.2 °F 29.95 in Calm     88% 0.00 in 0 W/m2
00:38 54.4 °F 50.9 °F 29.96 in Calm     88% 0.00 in 0 W/m2
00:44 54.3 °F 50.8 °F 29.96 in Calm     88% 0.00 in 0 W/m2
00:50 54.2 °F 51.0 °F 29.96 in Calm     89% 0.00 in 0 W/m2
00:56 54.3 °F 51.4 °F 29.96 in Calm     90% 0.00 in 0 W/m2
01:02 54.2 °F 51.3 °F 29.96 in Calm     90% 0.00 in 0 W/m2
01:08 54.1 °F 51.2 °F 29.95 in Calm     90% 0.00 in 0 W/m2
01:14 53.9 °F 51.0 °F 29.95 in Calm     90% 0.00 in 0 W/m2
01:20 53.8 °F 50.9 °F 29.95 in Calm     90% 0.00 in 0 W/m2
01:26 53.8 °F 51.2 °F 29.95 in Calm     91% 0.00 in 0 W/m2
01:32 53.8 °F 51.2 °F 29.95 in Calm     91% 0.00 in 0 W/m2
01:38 53.7 °F 51.1 °F 29.96 in Calm     91% 0.00 in 0 W/m2
01:44 53.4 °F 50.8 °F 29.96 in Calm     91% 0.00 in 0 W/m2
01:50 53.4 °F 50.8 °F 29.96 in Calm     91% 0.00 in 0 W/m2
01:56 53.2 °F 50.6 °F 29.96 in Calm     91% 0.00 in 0 W/m2
02:02 53.0 °F 50.4 °F 29.96 in Calm     91% 0.00 in 0 W/m2
02:08 53.0 °F 50.4 °F 29.96 in Calm     91% 0.00 in 0 W/m2
02:14 52.9 °F 50.3 °F 29.96 in Calm     91% 0.00 in 0 W/m2
02:20 52.8 °F 50.2 °F 29.96 in Calm     91% 0.00 in 0 W/m2
02:26 52.7 °F 50.4 °F 29.96 in Calm     92% 0.00 in 0 W/m2
02:32 52.7 °F 50.4 °F 29.96 in Calm     92% 0.00 in 0 W/m2
02:38 52.7 °F 50.4 °F 29.96 in Calm     92% 0.00 in 0 W/m2
02:44 52.6 °F 50.3 °F 29.96 in Calm     92% 0.00 in 0 W/m2
02:50 52.5 °F 50.2 °F 29.96 in Calm     92% 0.00 in 0 W/m2
02:56 52.4 °F 50.1 °F 29.96 in Calm     92% 0.00 in 0 W/m2
03:02 52.3 °F 50.0 °F 29.96 in Calm     92% 0.00 in 0 W/m2
03:08 52.4 °F 50.1 °F 29.96 in Calm     92% 0.00 in 0 W/m2
03:14 52.1 °F 49.8 °F 29.96 in Calm     92% 0.00 in 0 W/m2
03:20 52.0 °F 49.7 °F 29.96 in Calm     92% 0.00 in 0 W/m2
03:26 51.8 °F 49.5 °F 29.96 in Calm     92% 0.00 in 0 W/m2
03:32 51.7 °F 49.5 °F 29.96 in Calm     92% 0.00 in 0 W/m2
03:38 51.5 °F 49.3 °F 29.96 in Calm     92% 0.00 in 0 W/m2
03:44 51.4 °F 49.2 °F 29.96 in Calm     92% 0.00 in 0 W/m2
03:50 51.5 °F 49.3 °F 29.97 in Calm     92% 0.00 in 0 W/m2
03:56 51.5 °F 49.3 °F 29.97 in Calm     92% 0.00 in 0 W/m2
04:02 51.3 °F 49.3 °F 29.97 in Calm     93% 0.00 in 0 W/m2
04:08 51.1 °F 49.1 °F 29.97 in Calm     93% 0.00 in 0 W/m2
04:14 51.1 °F 48.9 °F 29.97 in Calm     92% 0.00 in 0 W/m2
04:20 51.2 °F 49.2 °F 29.98 in Calm     93% 0.00 in 0 W/m2
04:26 51.0 °F 49.0 °F 29.98 in Calm     93% 0.00 in 0 W/m2
04:32 50.9 °F 48.9 °F 29.97 in Calm     93% 0.00 in 0 W/m2
04:38 50.9 °F 48.9 °F 29.97 in Calm     93% 0.00 in 0 W/m2
04:44 50.8 °F 48.8 °F 29.97 in Calm     93% 0.00 in 0 W/m2
04:50 50.7 °F 48.7 °F 29.98 in Calm     93% 0.00 in 0 W/m2
04:56 50.9 °F 48.9 °F 29.98 in Calm     93% 0.00 in 0 W/m2
05:02 50.7 °F 48.7 °F 29.98 in Calm     93% 0.00 in 0 W/m2
05:08 50.7 °F 48.7 °F 29.98 in Calm     93% 0.00 in 0 W/m2
05:14 50.6 °F 48.7 °F 29.98 in Calm     93% 0.00 in 0 W/m2
05:20 50.7 °F 48.7 °F 29.98 in Calm     93% 0.00 in 0 W/m2
05:26 50.6 °F 48.7 °F 29.98 in Calm     93% 0.00 in 0 W/m2
05:32 50.7 °F 48.7 °F 29.98 in Calm     93% 0.00 in 0 W/m2
05:38 50.6 °F 48.7 °F 29.99 in Calm     93% 0.00 in 0 W/m2
05:44 50.5 °F 48.6 °F 29.99 in Calm     93% 0.00 in 0 W/m2
05:50 50.3 °F 48.4 °F 29.99 in Calm     93% 0.00 in 0 W/m2
05:56 50.2 °F 48.3 °F 30.00 in Calm     93% 0.00 in 5 W/m2
06:02 50.2 °F 48.3 °F 30.00 in Calm     93% 0.00 in 9 W/m2
06:08 50.3 °F 48.6 °F 30.00 in Calm     94% 0.00 in 11 W/m2
06:14 50.3 °F 48.6 °F 30.00 in Calm     94% 0.00 in 12 W/m2
06:20 50.2 °F 48.5 °F 30.00 in Calm     94% 0.00 in 16 W/m2
06:26 50.3 °F 48.6 °F 30.00 in Calm     94% 0.00 in 19 W/m2
06:32 50.5 °F 48.8 °F 30.00 in Calm     94% 0.00 in 25 W/m2
06:38 50.7 °F 49.0 °F 30.00 in Calm     94% 0.00 in 70 W/m2
06:44 51.3 °F 49.6 °F 30.01 in Calm     94% 0.00 in 90 W/m2
06:50 51.9 °F 50.2 °F 30.01 in Calm     94% 0.00 in 111 W/m2
06:56 52.8 °F 51.1 °F 30.01 in Calm     94% 0.00 in 139 W/m2
07:02 53.9 °F 52.2 °F 30.01 in Calm     94% 0.00 in 155 W/m2
07:08 54.2 °F 52.5 °F 30.01 in Calm     94% 0.00 in 167 W/m2
07:14 55.4 °F 53.7 °F 30.01 in Calm     94% 0.00 in 183 W/m2
07:20 55.7 °F 54.0 °F 30.01 in Calm     94% 0.00 in 195 W/m2
07:26 56.2 °F 54.5 °F 30.01 in Calm     94% 0.00 in 207 W/m2
07:32 57.0 °F 55.3 °F 30.01 in Calm     94% 0.00 in 223 W/m2
07:38 57.6 °F 55.9 °F 30.01 in Calm     94% 0.00 in 239 W/m2
07:44 58.3 °F 56.3 °F 30.01 in Calm     93% 0.00 in 253 W/m2
07:50 58.2 °F 55.9 °F 30.02 in Calm     92% 0.00 in 267 W/m2
08:02 59.8 °F 56.9 °F 30.02 in Calm     90% 0.00 in 304 W/m2
08:08 60.2 °F 56.9 °F 30.02 in Calm   1.0 mph 89% 0.00 in 323 W/m2
08:14 60.6 °F 57.0 °F 30.02 in Calm     88% 0.00 in 346 W/m2
08:20 61.4 °F 57.2 °F 30.02 in Calm     86% 0.00 in 369 W/m2
08:26 62.3 °F 58.1 °F 30.02 in Calm   3.0 mph 86% 0.00 in 385 W/m2
08:32 62.6 °F 58.0 °F 30.02 in Calm     85% 0.00 in 403 W/m2
08:38 62.9 °F 58.0 °F 30.02 in Calm     84% 0.00 in 418 W/m2
08:44 63.4 °F 57.8 °F 30.03 in Calm     82% 0.00 in 438 W/m2
08:50 63.7 °F 58.4 °F 30.03 in Calm   1.0 mph 83% 0.00 in 454 W/m2
08:56 63.9 °F 58.6 °F 30.03 in Calm   1.0 mph 83% 0.00 in 469 W/m2
09:02 64.7 °F 59.1 °F 30.03 in Calm     82% 0.00 in 490 W/m2
09:08 65.1 °F 58.8 °F 30.03 in Calm   2.0 mph 80% 0.00 in 504 W/m2
09:14 65.2 °F 58.9 °F 30.03 in Calm     80% 0.00 in 520 W/m2
09:20 65.6 °F 58.6 °F 30.02 in WSW 1.0 mph 1.0 mph 78% 0.00 in 540 W/m2
09:26 66.1 °F 58.7 °F 30.03 in SSW 1.0 mph 2.0 mph 77% 0.00 in 561 W/m2
09:32 66.7 °F 58.5 °F 30.03 in SW 1.0 mph 3.0 mph 75% 0.00 in 578 W/m2
09:38 67.3 °F 58.7 °F 30.03 in SW 1.0 mph 3.0 mph 74% 0.00 in 598 W/m2
09:44 67.9 °F 60.4 °F 30.03 in Calm   1.0 mph 77% 0.00 in 615 W/m2
09:50 68.4 °F 58.2 °F 30.03 in Calm     70% 0.00 in 629 W/m2
09:56 69.0 °F 58.8 °F 30.02 in Calm     70% 0.00 in 647 W/m2
10:02 69.7 °F 55.6 °F 30.03 in Calm     61% 0.00 in 666 W/m2
10:08 70.2 °F 56.1 °F 30.03 in Calm     61% 0.00 in 682 W/m2
10:14 71.0 °F 57.3 °F 30.03 in NW 1.0 mph 1.0 mph 62% 0.00 in 696 W/m2
10:20 71.7 °F 54.7 °F 30.03 in Calm     55% 0.00 in 712 W/m2
10:26 72.2 °F 54.1 °F 30.03 in Calm     53% 0.00 in 728 W/m2
10:32 72.7 °F 55.6 °F 30.03 in Calm   2.0 mph 55% 0.00 in 747 W/m2
10:38 71.8 °F 54.8 °F 30.03 in SW 1.0 mph 2.0 mph 55% 0.00 in 758 W/m2
10:44 72.6 °F 59.3 °F 30.03 in NNE 1.0 mph 3.0 mph 63% 0.00 in 766 W/m2
10:50 72.9 °F 53.7 °F 30.03 in NNW 1.0 mph 1.0 mph 51% 0.00 in 777 W/m2
10:56 73.1 °F 54.4 °F 30.03 in NNE 2.0 mph 4.0 mph 52% 0.00 in 789 W/m2
11:02 73.2 °F 52.9 °F 30.03 in NNE 1.0 mph 3.0 mph 49% 0.00 in 807 W/m2
11:08 74.6 °F 54.7 °F 30.04 in North 1.0 mph 3.0 mph 50% 0.00 in 817 W/m2
11:14 75.1 °F 52.9 °F 30.04 in NNW 1.0 mph 2.0 mph 46% 0.00 in 831 W/m2
11:20 75.0 °F 52.2 °F 30.04 in North 1.0 mph 2.0 mph 45% 0.00 in 840 W/m2
11:26 75.2 °F 51.2 °F 30.04 in North 1.0 mph 2.0 mph 43% 0.00 in 851 W/m2
11:32 75.3 °F 53.1 °F 30.04 in North 1.0 mph 1.0 mph 46% 0.00 in 860 W/m2
11:38 75.5 °F 53.3 °F 30.04 in North 1.0 mph 1.0 mph 46% 0.00 in 867 W/m2
11:44 75.2 °F 53.6 °F 30.04 in WSW 1.0 mph 4.0 mph 47% 0.00 in 872 W/m2
11:50 75.5 °F 56.6 °F 30.03 in SW 1.0 mph 1.0 mph 52% 0.00 in 875 W/m2
11:56 75.5 °F 51.4 °F 30.03 in NNE 1.0 mph 4.0 mph 43% 0.00 in 886 W/m2
12:02 74.5 °F 52.9 °F 30.03 in NNE 2.0 mph 2.0 mph 47% 0.00 in 893 W/m2
12:08 74.8 °F 52.6 °F 30.03 in NNE 2.0 mph 2.0 mph 46% 0.00 in 898 W/m2
12:14 75.7 °F 51.6 °F 30.03 in NW 1.0 mph 1.0 mph 43% 0.00 in 898 W/m2
12:20 76.3 °F 53.4 °F 30.03 in North 1.0 mph 1.0 mph 45% 0.00 in 905 W/m2
12:26 76.3 °F 53.4 °F 30.03 in North 1.0 mph 1.0 mph 45% 0.00 in 909 W/m2
12:32 75.7 °F 54.0 °F 30.03 in North 1.0 mph 1.0 mph 47% 0.00 in 914 W/m2
12:38 77.0 °F 55.2 °F 30.03 in NW 1.0 mph 2.0 mph 47% 0.00 in 914 W/m2
12:44 77.0 °F 51.5 °F 30.03 in North 1.0 mph 3.0 mph 41% 0.00 in 921 W/m2
12:50 77.1 °F 54.1 °F 30.03 in NW 1.0 mph 1.0 mph 45% 0.00 in 919 W/m2
12:56 76.8 °F 52.6 °F 30.03 in SSW 1.0 mph 3.0 mph 43% 0.00 in 918 W/m2
13:02 77.4 °F 51.9 °F 30.02 in SSE 1.0 mph 3.0 mph 41% 0.00 in 919 W/m2
13:08 77.1 °F 50.9 °F 30.02 in SSW 1.0 mph 3.0 mph 40% 0.00 in 916 W/m2
13:14 77.4 °F 55.6 °F 30.02 in WSW 1.0 mph 2.0 mph 47% 0.00 in 912 W/m2
13:20 78.1 °F 52.5 °F 30.02 in North 1.0 mph 2.0 mph 41% 0.00 in 912 W/m2
13:26 77.6 °F 52.7 °F 30.02 in North 3.0 mph 3.0 mph 42% 0.00 in 912 W/m2
13:32 77.8 °F 52.9 °F 30.02 in NE 4.0 mph 4.0 mph 42% 0.00 in 909 W/m2
13:38 78.6 °F 54.9 °F 30.02 in NW 2.0 mph 4.0 mph 44% 0.00 in 905 W/m2
13:44 78.7 °F 54.3 °F 30.02 in North 1.0 mph 2.0 mph 43% 0.00 in 905 W/m2
13:50 78.5 °F 52.2 °F 30.02 in WSW 1.0 mph 1.0 mph 40% 0.00 in 902 W/m2
13:56 78.4 °F 49.2 °F 30.02 in ENE 1.0 mph 2.0 mph 36% 0.00 in 889 W/m2
14:03 78.6 °F 51.6 °F 30.02 in SW 1.0 mph 4.0 mph 39% 0.00 in 884 W/m2
14:08 78.3 °F 52.7 °F 30.02 in SW 2.0 mph 4.0 mph 41% 0.00 in 877 W/m2
14:14 78.8 °F 57.4 °F 30.02 in WSW 2.0 mph 4.0 mph 48% 0.00 in 872 W/m2
14:20 79.2 °F 52.1 °F 30.02 in NNW 1.0 mph 1.0 mph 39% 0.00 in 868 W/m2
14:26 79.3 °F 56.7 °F 30.02 in WSW 1.0 mph 1.0 mph 46% 0.00 in 856 W/m2
14:32 79.3 °F 56.1 °F 30.02 in NW 1.0 mph 2.0 mph 45% 0.00 in 854 W/m2
14:38 79.3 °F 52.9 °F 30.01 in NW 1.0 mph 3.0 mph 40% 0.00 in 851 W/m2
14:44 79.7 °F 54.6 °F 30.01 in NW 1.0 mph 2.0 mph 42% 0.00 in 844 W/m2
14:50 79.7 °F 60.0 °F 30.01 in WNW 1.0 mph 2.0 mph 51% 0.00 in 835 W/m2
14:56 80.2 °F 56.9 °F 30.01 in WSW 1.0 mph 2.0 mph 45% 0.00 in 830 W/m2
15:02 80.3 °F 55.1 °F 30.01 in NW 1.0 mph 1.0 mph 42% 0.00 in 821 W/m2
15:08 80.3 °F 53.8 °F 30.01 in North 1.0 mph 1.0 mph 40% 0.00 in 812 W/m2
15:14 79.9 °F 56.0 °F 30.01 in West 1.0 mph 2.0 mph 44% 0.00 in 803 W/m2
15:20 80.0 °F 55.5 °F 30.01 in West 1.0 mph 2.0 mph 43% 0.00 in 793 W/m2
15:26 80.3 °F 57.6 °F 30.01 in NW 1.0 mph 3.0 mph 46% 0.00 in 780 W/m2
15:32 80.3 °F 58.2 °F 30.00 in NNW 2.0 mph 2.0 mph 47% 0.00 in 763 W/m2
15:38 80.4 °F 58.3 °F 30.00 in WSW 1.0 mph 3.0 mph 47% 0.00 in 758 W/m2
15:44 80.6 °F 56.0 °F 30.00 in NNW 2.0 mph 3.0 mph 43% 0.00 in 742 W/m2
15:50 80.8 °F 58.7 °F 30.00 in SSW 1.0 mph 3.0 mph 47% 0.00 in 729 W/m2
15:56 81.0 °F 57.7 °F 30.00 in NW 1.0 mph 3.0 mph 45% 0.00 in 715 W/m2
16:02 80.8 °F 58.7 °F 30.00 in NNW 2.0 mph 2.0 mph 47% 0.00 in 696 W/m2
16:08 80.9 °F 59.9 °F 30.00 in North 2.0 mph 2.0 mph 49% 0.00 in 684 W/m2
16:14 81.1 °F 59.0 °F 30.00 in NNW 2.0 mph 4.0 mph 47% 0.00 in 663 W/m2
16:20 80.7 °F 60.3 °F 30.00 in NW 1.0 mph 1.0 mph 50% 0.00 in 647 W/m2
16:26 80.6 °F 58.5 °F 29.99 in NW 1.0 mph 1.0 mph 47% 0.00 in 635 W/m2
16:32 80.9 °F 59.4 °F 29.99 in NNW 1.0 mph 3.0 mph 48% 0.00 in 615 W/m2
16:38 80.8 °F 59.9 °F 29.99 in NNW 1.0 mph 3.0 mph 49% 0.00 in 599 W/m2
16:44 80.7 °F 59.2 °F 29.99 in NNW 1.0 mph 2.0 mph 48% 0.00 in 594 W/m2
16:50 80.5 °F 60.7 °F 29.99 in NNW 2.0 mph 2.0 mph 51% 0.00 in 155 W/m2
16:56 80.7 °F 62.0 °F 29.99 in SW 1.0 mph 3.0 mph 53% 0.00 in 388 W/m2
17:02 80.7 °F 59.8 °F 29.99 in WSW 1.0 mph 1.0 mph 49% 0.00 in 98 W/m2
17:08 80.3 °F 58.8 °F 29.99 in WSW 1.0 mph 1.0 mph 48% 0.00 in 86 W/m2
17:14 79.9 °F 59.6 °F 29.99 in North 1.0 mph 1.0 mph 50% 0.00 in 76 W/m2
17:20 79.6 °F 58.8 °F 29.99 in WNW 1.0 mph 1.0 mph 49% 0.00 in 69 W/m2
17:26 79.5 °F 58.7 °F 29.99 in NNW 1.0 mph 2.0 mph 49% 0.00 in 69 W/m2
17:32 79.4 °F 58.6 °F 29.99 in NNW 2.0 mph 4.0 mph 49% 0.00 in 65 W/m2
17:38 79.1 °F 57.7 °F 29.99 in NNW 1.0 mph 4.0 mph 48% 0.00 in 65 W/m2
17:44 79.0 °F 58.8 °F 29.99 in SW 1.0 mph 2.0 mph 50% 0.00 in 63 W/m2
17:52 78.8 °F 59.1 °F 30.00 in NNW 2.0 mph 2.0 mph 51% 0.00 in 60 W/m2
17:58 78.8 °F 59.7 °F 30.00 in WNW 1.0 mph 4.0 mph 52% 0.00 in 58 W/m2
18:04 78.7 °F 57.9 °F 30.00 in NNW 1.0 mph 1.0 mph 49% 0.00 in 56 W/m2
18:10 78.6 °F 58.4 °F 30.00 in NNW 1.0 mph 1.0 mph 50% 0.00 in 56 W/m2
18:16 78.4 °F 58.2 °F 30.00 in NNW 1.0 mph 2.0 mph 50% 0.00 in 54 W/m2
18:22 78.2 °F 60.2 °F 30.00 in NNW 1.0 mph 1.0 mph 54% 0.00 in 53 W/m2
18:28 78.1 °F 58.5 °F 29.99 in Calm   2.0 mph 51% 0.00 in 53 W/m2
18:34 77.9 °F 58.3 °F 29.99 in North 1.0 mph 1.0 mph 51% 0.00 in 51 W/m2
18:40 77.7 °F 60.2 °F 29.99 in North 1.0 mph 1.0 mph 55% 0.00 in 49 W/m2
18:46 77.5 °F 59.0 °F 29.99 in Calm   1.0 mph 53% 0.00 in 47 W/m2
18:52 77.4 °F 58.9 °F 29.99 in Calm   1.0 mph 53% 0.00 in 46 W/m2
18:58 77.3 °F 59.4 °F 29.99 in Calm   1.0 mph 54% 0.00 in 44 W/m2
19:04 77.1 °F 60.2 °F 30.00 in Calm     56% 0.00 in 42 W/m2
19:10 77.0 °F 60.1 °F 30.00 in Calm     56% 0.00 in 40 W/m2
19:16 76.8 °F 60.4 °F 30.00 in Calm     57% 0.00 in 39 W/m2
19:22 76.6 °F 62.1 °F 30.00 in Calm     61% 0.00 in 33 W/m2
19:28 75.9 °F 63.3 °F 30.00 in Calm     65% 0.00 in 28 W/m2
19:34 75.1 °F 63.8 °F 30.00 in Calm     68% 0.00 in 25 W/m2
19:40 74.4 °F 63.6 °F 30.00 in Calm     69% 0.00 in 23 W/m2
19:46 73.7 °F 63.3 °F 30.00 in Calm     70% 0.00 in 26 W/m2
19:52 72.7 °F 62.3 °F 30.01 in Calm     70% 0.00 in 26 W/m2
19:58 72.4 °F 62.5 °F 30.01 in Calm     71% 0.00 in 25 W/m2
20:04 72.1 °F 61.8 °F 30.01 in Calm     70% 0.00 in 21 W/m2
20:10 71.5 °F 61.6 °F 30.01 in Calm     71% 0.00 in 16 W/m2
20:16 71.1 °F 62.0 °F 30.01 in Calm     73% 0.00 in 12 W/m2
20:22 70.7 °F 61.6 °F 30.01 in Calm     73% 0.00 in 7 W/m2
20:28 70.3 °F 61.6 °F 30.01 in Calm     74% 0.00 in 0 W/m2
20:34 69.9 °F 61.2 °F 30.01 in Calm     74% 0.00 in 0 W/m2
20:40 69.5 °F 61.2 °F 30.01 in Calm     75% 0.00 in 0 W/m2
20:46 69.1 °F 61.6 °F 30.01 in Calm     77% 0.00 in 0 W/m2
20:52 68.7 °F 61.2 °F 30.01 in Calm     77% 0.00 in 0 W/m2
20:58 68.2 °F 61.4 °F 30.01 in Calm     79% 0.00 in 0 W/m2
21:04 68.0 °F 61.2 °F 30.01 in Calm     79% 0.00 in 0 W/m2
21:10 67.7 °F 61.0 °F 30.01 in Calm     79% 0.00 in 0 W/m2
21:16 67.4 °F 61.0 °F 30.01 in Calm     80% 0.00 in 0 W/m2
21:22 67.1 °F 60.7 °F 30.01 in Calm     80% 0.00 in 0 W/m2
21:28 66.9 °F 60.5 °F 30.01 in Calm     80% 0.00 in 0 W/m2
21:34 66.7 °F 60.7 °F 30.01 in Calm     81% 0.00 in 0 W/m2
21:40 66.4 °F 60.7 °F 30.01 in Calm     82% 0.00 in 0 W/m2
21:46 66.1 °F 60.4 °F 30.01 in Calm     82% 0.00 in 0 W/m2
21:48 66.0 °F 60.3 °F 30.01 in Calm     82% 0.00 in 0 W/m2
21:54 65.8 °F 60.2 °F 30.01 in Calm     82% 0.00 in 0 W/m2
22:00 65.7 °F 60.4 °F 30.02 in Calm     83% 0.00 in 0 W/m2
22:06 65.4 °F 60.4 °F 30.02 in Calm     84% 0.00 in 0 W/m2
22:12 65.2 °F 60.2 °F 30.02 in Calm     84% 0.00 in 0 W/m2
22:18 65.0 °F 60.4 °F 30.02 in Calm     85% 0.00 in 0 W/m2
22:24 64.9 °F 60.3 °F 30.02 in Calm     85% 0.00 in 0 W/m2
22:30 64.8 °F 60.2 °F 30.01 in Calm     85% 0.00 in 0 W/m2
22:36 64.6 °F 60.0 °F 30.02 in Calm     85% 0.00 in 0 W/m2
22:42 64.4 °F 59.8 °F 30.02 in Calm     85% 0.00 in 0 W/m2
22:48 64.2 °F 59.9 °F 30.02 in Calm     86% 0.00 in 0 W/m2
22:54 64.0 °F 59.7 °F 30.02 in Calm     86% 0.00 in 0 W/m2
23:00 63.9 °F 60.0 °F 30.02 in Calm     87% 0.00 in 0 W/m2
23:08 63.7 °F 59.8 °F 30.02 in Calm     87% 0.00 in 0 W/m2
23:14 63.5 °F 59.6 °F 30.02 in Calm     87% 0.00 in 0 W/m2
23:20 63.3 °F 59.7 °F 30.02 in Calm     88% 0.00 in 0 W/m2
23:26 63.3 °F 59.7 °F 30.02 in Calm     88% 0.00 in 0 W/m2
23:32 63.2 °F 59.6 °F 30.02 in Calm     88% 0.00 in 0 W/m2
23:38 63.1 °F 59.5 °F 30.02 in Calm     88% 0.00 in 0 W/m2
23:44 62.9 °F 59.3 °F 30.02 in Calm     88% 0.00 in 0 W/m2
23:50 62.8 °F 59.2 °F 30.02 in Calm     88% 0.00 in 0 W/m2
23:56 62.7 °F 59.4 °F 30.02 in Calm     89% 0.00 in 0 W/m2
Country Meadow, Clay, NY, USA
Compliments of Weather Underground - 2 mb